Time;durP1;ratioP1;P1;durP2;ratioP2;P2;SDS_P1;SDS_P2;PMS_P1;PMS_P2;Temp;Humidity;BMP_temperature;BMP_pressure;BME280_temperature;BME280_humidity;BME280_pressure;Samples;Min_cycle;Max_cycle;Signal;HPM_P1;HPM_P2
2022/02/03 00:01:08;;;;;;;34.37;20.80;;;;;;;0.60;100.00;99851.31;5011539;28;20476;-77
2022/02/03 00:03:47;;;;;;;32.90;20.07;;;;;;;0.68;100.00;99864.50;5012899;28;20374;-77
2022/02/03 00:06:15;;;;;;;31.02;19.83;;;;;;;0.46;100.00;99880.88;5012716;28;20038;-77
2022/02/03 00:24:41;;;;;;;28.90;18.00;;;;;;;0.56;100.00;99876.38;5026691;28;20033;-80
2022/02/03 00:27:34;;;;;;;30.30;20.10;;;;;;;0.57;100.00;99860.38;5030193;28;20438;-81
2022/02/03 00:30:05;;;;;;;27.23;17.47;;;;;;;0.67;100.00;99870.38;5032401;28;20036;-80
2022/02/03 00:48:42;;;;;;;35.57;23.27;;;;;;;0.62;100.00;99874.25;5031345;28;20060;-79
2022/02/03 00:51:08;;;;;;;30.17;20.40;;;;;;;0.60;100.00;99860.59;5029956;28;20116;-77
2022/02/03 00:53:35;;;;;;;36.50;23.03;;;;;;;0.44;100.00;99868.84;5030339;28;20025;-78
2022/02/03 00:56:16;;;;;;;45.33;28.63;;;;;;;0.46;100.00;99880.88;5034480;28;20056;-78
2022/02/03 00:58:50;;;;;;;43.53;27.67;;;;;;;0.44;100.00;99866.31;5051661;28;20071;-77
2022/02/03 01:01:18;;;;;;;48.40;28.80;;;;;;;0.36;100.00;99873.38;5049858;28;20033;-80
2022/02/03 01:06:34;;;;;;;47.60;27.30;;;;;;;-0.01;100.00;99866.66;5130663;22;20833;-75
2022/02/03 01:09:01;;;;;;;44.75;27.42;;;;;;;-0.08;100.00;99856.00;5031471;28;20029;-76
2022/02/03 01:11:32;;;;;;;46.63;26.93;;;;;;;0.02;100.00;99873.63;5009713;28;20029;-73
2022/02/03 01:14:10;;;;;;;45.67;27.77;;;;;;;0.12;100.00;99878.53;5018146;28;20632;-73
2022/02/03 01:16:59;;;;;;;44.20;26.27;;;;;;;0.15;100.00;99885.50;5010886;28;20026;-74
2022/02/03 01:33:32;;;;;;;43.10;26.23;;;;;;;0.03;100.00;99883.00;5010747;28;20045;-73
2022/02/03 01:43:52;;;;;;;40.63;23.93;;;;;;;0.39;100.00;99888.84;5031198;28;20067;-78
2022/02/03 01:46:28;;;;;;;41.07;24.60;;;;;;;0.51;100.00;99900.59;5031177;28;20025;-76
2022/02/03 01:49:12;;;;;;;39.30;24.53;;;;;;;0.53;100.00;99906.69;5013155;28;20029;-77
2022/02/03 01:51:54;;;;;;;40.30;24.77;;;;;;;0.55;100.00;99907.63;5031135;28;20025;-77
2022/02/03 01:54:28;;;;;;;40.20;23.47;;;;;;;0.55;100.00;99907.63;5013066;28;20395;-77
2022/02/03 01:57:17;;;;;;;41.67;24.67;;;;;;;0.57;100.00;99913.72;5013175;28;20108;-77
2022/02/03 01:59:52;;;;;;;39.50;24.20;;;;;;;0.51;100.00;99913.31;5013212;28;20032;-78
2022/02/03 02:02:25;;;;;;;39.23;22.63;;;;;;;0.46;100.00;99903.72;5030947;28;20030;-79
2022/02/03 02:05:04;;;;;;;38.67;23.33;;;;;;;-0.04;100.00;99830.06;5012620;28;20104;-78
2022/02/03 02:08:01;;;;;;;41.92;23.75;;;;;;;0.32;100.00;99909.50;5030041;28;20029;-77
2022/02/03 02:10:55;;;;;;;44.97;25.47;;;;;;;0.26;100.00;99921.78;4972373;28;20065;-78
2022/02/03 02:39:37;;;;;;;41.60;25.50;;;;;;;0.41;100.00;99933.00;4948860;29;20073;-78
2022/02/03 02:44:54;;;;;;;43.03;26.25;;;;;;;0.18;100.00;99939.03;4930825;29;19909;-78
2022/02/03 02:48:01;;;;;;;50.23;29.07;;;;;;;0.09;100.00;99929.09;4940773;29;20051;-75
2022/02/03 02:50:42;;;;;;;46.67;28.23;;;;;;;-0.02;100.00;99927.47;4892421;29;20398;-78
2022/02/03 02:53:23;;;;;;;46.07;28.40;;;;;;;0.08;100.00;99921.41;4891622;29;20082;-75
2022/02/03 03:29:45;;;;;;;50.07;29.17;;;;;;;0.07;100.00;99942.47;4877219;29;20512;-78
2022/02/03 03:37:46;;;;;;;46.67;28.10;;;;;;;-0.22;100.00;99909.19;4893319;29;20041;-76
2022/02/03 03:40:12;;;;;;;48.33;28.97;;;;;;;-0.25;100.00;99919.13;4876660;29;20540;-77
2022/02/03 03:42:43;;;;;;;50.27;29.20;;;;;;;0.09;100.00;99961.22;4882161;29;20091;-77
2022/02/03 03:45:09;;;;;;;45.73;26.93;;;;;;;0.09;100.00;99951.09;4921876;29;20035;-80
2022/02/03 03:47:37;;;;;;;44.03;25.97;;;;;;;0.24;100.00;99972.44;4948290;29;20027;-79
2022/02/03 03:50:14;;;;;;;42.87;24.77;;;;;;;0.22;100.00;99980.75;4943665;28;20486;-77
2022/02/03 03:52:53;;;;;;;44.13;26.30;;;;;;;-0.15;100.00;99990.81;5032558;28;20025;-75
2022/02/03 03:55:35;;;;;;;45.50;24.02;;;;;;;-0.53;100.00;99956.84;5032883;28;20021;-77
2022/02/03 04:34:00;;;;;;;55.07;28.47;;;;;;;-0.39;100.00;100047.47;4912814;29;20035;-77
2022/02/03 04:56:52;;;;;;;51.23;26.37;;;;;;;-0.44;100.00;100058.94;4912532;29;20139;-77
2022/02/03 05:02:51;;;;;;;50.43;28.03;;;;;;;-0.45;100.00;100053.75;4923762;29;20402;-77
2022/02/03 06:15:43;;;;;;;49.03;27.73;;;;;;;-0.34;100.00;100198.38;4945451;28;20061;-79
2022/02/03 06:29:20;;;;;;;55.23;31.50;;;;;;;-0.07;100.00;100235.84;4930898;29;20070;-78
2022/02/03 06:31:49;;;;;;;55.43;31.30;;;;;;;-0.08;100.00;100245.09;4921065;29;20124;-81
2022/02/03 06:34:15;;;;;;;65.13;35.13;;;;;;;-0.36;100.00;100221.84;4917186;29;20042;-81
2022/02/03 06:36:42;;;;;;;59.50;32.60;;;;;;;-0.13;100.00;100248.94;4930696;29;20487;-81
2022/02/03 06:39:28;;;;;;;61.73;33.53;;;;;;;0.00;100.00;100276.16;4914802;29;20083;-81
2022/02/03 06:41:57;;;;;;;66.73;36.80;;;;;;;0.15;100.00;100269.69;4914707;29;20564;-81
2022/02/03 06:44:30;;;;;;;58.70;32.55;;;;;;;0.12;100.00;100271.97;4912784;29;20498;-82
2022/02/03 06:47:01;;;;;;;58.97;33.43;;;;;;;0.19;100.00;100286.03;4911268;29;20040;-82
2022/02/03 06:52:13;;;;;;;64.10;35.27;;;;;;;0.32;100.00;100290.38;4930479;29;20576;-80
2022/02/03 06:57:17;;;;;;;80.83;44.33;;;;;;;0.27;100.00;100289.16;4933739;29;20151;-79
2022/02/03 06:59:57;;;;;;;74.80;43.27;;;;;;;0.37;100.00;100294.13;4907421;29;20119;-78
2022/02/03 07:02:27;;;;;;;73.40;41.70;;;;;;;0.40;100.00;100290.94;4933128;28;20035;-77
2022/02/03 07:04:52;;;;;;;71.88;40.45;;;;;;;0.51;100.00;100294.28;4992325;28;20046;-78
2022/02/03 07:07:19;;;;;;;63.73;36.63;;;;;;;0.42;100.00;100267.41;5010398;28;20030;-79
2022/02/03 07:09:50;;;;;;;62.77;37.63;;;;;;;0.68;100.00;100306.56;5006879;28;20109;-78
2022/02/03 07:12:15;;;;;;;61.20;36.60;;;;;;;0.70;100.00;100304.13;5011144;28;20037;-80
2022/02/03 07:14:41;;;;;;;59.30;37.20;;;;;;;0.64;100.00;100304.59;5011292;28;20030;-78
2022/02/03 07:17:07;;;;;;;63.50;36.27;;;;;;;0.81;100.00;100310.94;5011035;28;20038;-78
2022/02/03 07:19:41;;;;;;;58.03;36.27;;;;;;;0.94;100.00;100312.69;4996362;28;20025;-79
2022/02/03 07:22:07;;;;;;;53.73;30.70;;;;;;;1.02;100.00;100306.47;5004374;28;20034;-77
2022/02/03 07:24:32;;;;;;;50.60;30.80;;;;;;;1.16;100.00;100311.69;5008357;28;20506;-79
2022/02/03 07:26:58;;;;;;;49.50;29.07;;;;;;;1.30;100.00;100316.13;5010413;28;20030;-77
2022/02/03 07:29:23;;;;;;;46.43;27.13;;;;;;;1.06;100.00;100279.63;5010324;28;20022;-76
2022/02/03 07:31:49;;;;;;;43.83;27.13;;;;;;;1.38;100.00;100320.06;5009809;28;20029;-77
2022/02/03 07:34:16;;;;;;;47.53;28.17;;;;;;;1.21;100.00;100269.66;5027670;28;20446;-78
2022/02/03 07:36:44;;;;;;;41.90;26.23;;;;;;;1.51;100.00;100313.31;5031631;28;20032;-79
2022/02/03 07:39:10;;;;;;;49.90;30.10;;;;;;;1.65;100.00;100319.41;5022210;28;20021;-78
2022/02/03 07:41:35;;;;;;;52.47;29.50;;;;;;;1.69;100.00;100327.31;5013592;28;20013;-76
2022/02/03 07:44:01;;;;;;;58.13;31.80;;;;;;;1.73;100.00;100333.53;5028055;28;20400;-77
2022/02/03 07:46:30;;;;;;;52.27;32.77;;;;;;;1.78;100.00;100339.81;5012166;28;20727;-79
2022/02/03 07:48:56;;;;;;;59.22;34.55;;;;;;;1.80;100.00;100332.31;5024596;28;20017;-79
2022/02/03 07:51:22;;;;;;;58.50;34.37;;;;;;;1.82;100.00;100359.63;5026760;28;20034;-78
2022/02/03 07:53:48;;;;;;;39.70;25.80;;;;;;;1.70;100.00;100344.38;5014078;28;20056;-77
2022/02/03 07:56:13;;;;;;;44.27;25.63;;;;;;;1.58;100.00;100343.50;5032194;28;20048;-80
2022/02/03 07:58:39;;;;;;;39.97;23.70;;;;;;;1.57;100.00;100367.19;5012509;28;20030;-80
2022/02/03 08:01:05;;;;;;;35.30;23.10;;;;;;;1.29;100.00;100329.59;5011723;28;20033;-78
2022/02/03 08:03:30;;;;;;;37.60;21.97;;;;;;;1.55;100.00;100367.06;5031474;28;20045;-79
2022/02/03 08:06:01;;;;;;;41.13;26.47;;;;;;;1.63;100.00;100377.78;5018561;28;20054;-79
2022/02/03 08:08:38;;;;;;;39.60;22.83;;;;;;;1.63;100.00;100361.66;5011222;28;20044;-79
2022/02/03 08:11:08;;;;;;;34.33;21.63;;;;;;;1.77;100.00;100373.72;5010760;28;20499;-80
2022/02/03 08:13:38;;;;;;;39.30;24.73;;;;;;;1.79;100.00;100369.59;5024110;28;20028;-77
2022/02/03 08:16:11;;;;;;;37.83;24.40;;;;;;;1.83;100.00;100369.00;5025657;28;20480;-80
2022/02/03 08:18:40;;;;;;;40.73;24.70;;;;;;;2.06;100.00;100385.03;5008939;28;20022;-81
2022/02/03 08:21:08;;;;;;;36.27;22.97;;;;;;;1.96;100.00;100367.31;5005619;28;20431;-77
2022/02/03 08:26:24;;;;;;;34.40;19.77;;;;;;;2.15;100.00;100390.75;5029762;28;20108;-80
2022/02/03 08:29:10;;;;;;;29.50;19.30;;;;;;;2.06;100.00;100374.84;5022660;28;20087;-79
2022/02/03 08:32:04;;;;;;;29.60;18.83;;;;;;;2.18;100.00;100390.97;5007854;28;20040;-78
2022/02/03 08:34:36;;;;;;;37.60;23.73;;;;;;;2.21;100.00;100390.31;5024221;28;20095;-78
2022/02/03 08:37:05;;;;;;;34.93;21.80;;;;;;;2.25;100.00;100385.50;5030064;28;20030;-79
2022/02/03 08:39:37;;;;;;;37.20;23.00;;;;;;;2.39;100.00;100409.41;5009585;28;20476;-76
2022/02/03 08:42:03;;;;;;;29.30;19.60;;;;;;;2.45;100.00;100398.72;5020675;28;20040;-80
2022/02/03 08:44:28;;;;;;;27.13;18.40;;;;;;;2.61;100.00;100395.56;5029444;28;20021;-84
2022/02/03 08:46:54;;;;;;;28.87;17.30;;;;;;;2.72;100.00;100404.81;5013481;28;20033;-79
2022/02/03 08:49:22;;;;;;;26.97;16.43;;;;;;;2.87;100.00;100399.84;5028927;28;20038;-78
2022/02/03 08:51:47;;;;;;;26.00;16.43;;;;;;;2.91;100.00;100406.91;5009149;28;20021;-78
2022/02/03 08:54:14;;;;;;;25.38;16.98;;;;;;;2.96;100.00;100399.59;5028868;28;20116;-78
2022/02/03 08:56:56;;;;;;;23.92;16.30;;;;;;;3.02;100.00;100402.53;5012990;28;20025;-80
2022/02/03 09:58:25;;;;;;;11.98;8.07;;;;;;;5.72;99.11;100405.94;4988920;28;20112;-85
2022/02/03 10:03:35;;;;;;;11.77;8.93;;;;;;;5.57;94.89;100388.97;4989075;28;20033;-82
2022/02/03 10:06:06;;;;;;;12.65;9.45;;;;;;;6.03;97.10;100443.56;4972491;28;20535;-82
2022/02/03 10:08:33;;;;;;;9.38;6.68;;;;;;;5.93;94.38;100431.88;4988967;28;20022;-81
2022/02/03 10:11:25;;;;;;;11.05;7.82;;;;;;;6.12;94.63;100442.38;5006914;28;20039;-82
2022/02/03 10:13:56;;;;;;;8.75;6.30;;;;;;;6.02;91.64;100428.97;5032667;28;20025;-82
2022/02/03 10:16:27;;;;;;;9.60;6.68;;;;;;;5.88;91.98;100388.09;5032480;28;20036;-81
2022/02/03 10:19:19;;;;;;;9.40;6.75;;;;;;;6.22;90.48;100442.84;5008042;28;20033;-81
2022/02/03 10:21:48;;;;;;;10.25;6.82;;;;;;;6.19;93.24;100432.47;4991895;28;20153;-82
2022/02/03 10:24:17;;;;;;;9.82;8.15;;;;;;;6.36;92.10;100448.75;4991630;28;20038;-82
2022/02/03 10:26:47;;;;;;;11.05;6.57;;;;;;;6.46;91.79;100446.75;5008351;28;20038;-81
2022/02/03 10:29:27;;;;;;;10.68;6.72;;;;;;;6.41;88.47;100455.88;4992983;28;20128;-81
2022/02/03 10:31:53;;;;;;;9.52;6.03;;;;;;;6.43;88.79;100453.38;4995645;28;20464;-80
2022/02/03 10:34:25;;;;;;;8.27;5.60;;;;;;;6.31;88.05;100433.13;4995797;28;20034;-80
2022/02/03 10:45:01;;;;;;;9.85;6.35;;;;;;;6.51;87.64;100464.94;5006546;28;20044;-80
2022/02/03 11:03:27;;;;;;;10.20;6.10;;;;;;;6.41;86.06;100488.34;5033905;28;20104;-82
2022/02/03 11:08:34;;;;;;;11.63;6.82;;;;;;;6.51;86.14;100466.66;5036220;28;20029;-76
2022/02/03 11:11:02;;;;;;;13.82;6.43;;;;;;;6.78;83.67;100488.59;5039413;28;20033;-75
2022/02/03 11:13:32;;;;;;;9.30;6.07;;;;;;;6.72;83.18;100498.53;5033810;28;20028;-78
2022/02/03 11:16:04;;;;;;;;;;;;;;;6.60;84.91;100503.03;5034193;28;20032;-78
2022/02/03 11:18:31;;;;;;;12.00;6.47;;;;;;;6.45;87.47;100503.09;5023946;28;19919;-74
2022/02/03 11:20:58;;;;;;;9.50;6.25;;;;;;;6.38;88.54;100494.19;5053507;28;20025;-75
2022/02/03 11:24:00;;;;;;;8.20;5.85;;;;;;;6.27;87.31;100496.16;5010978;28;20534;-78
2022/02/03 11:27:08;;;;;;;14.10;6.13;;;;;;;6.22;87.34;100499.25;5011390;28;20029;-77
2022/02/03 11:38:03;;;;;;;9.48;5.20;;;;;;;5.88;83.84;100523.88;4952713;29;20070;-77
2022/02/03 11:46:37;;;;;;;9.75;4.88;;;;;;;5.81;82.20;100537.13;4933674;29;20039;-75
2022/02/03 12:05:38;;;;;;;10.68;6.68;;;;;;;5.81;87.13;100542.25;4914357;29;20048;-76
2022/02/03 12:19:30;;;;;;;6.95;4.40;;;;;;;6.40;87.14;100560.94;4952318;29;20031;-77
2022/02/03 12:22:28;;;;;;;6.85;4.88;;;;;;;6.47;85.25;100545.09;4951990;29;20041;-75
2022/02/03 12:25:11;;;;;;;8.73;4.82;;;;;;;6.66;83.03;100553.78;4952108;29;20019;-77
2022/02/03 12:27:56;;;;;;;6.20;4.38;;;;;;;6.70;83.10;100537.75;4952061;29;20496;-78
2022/02/03 12:30:29;;;;;;;6.80;4.50;;;;;;;6.91;82.30;100554.28;4951980;29;20166;-78
2022/02/03 12:38:30;;;;;;;12.48;8.23;;;;;;;6.43;83.48;100528.66;4951811;29;20059;-79
2022/02/03 12:41:06;;;;;;;9.82;5.07;;;;;;;6.61;84.85;100556.97;4961587;28;20023;-75
2022/02/03 12:43:36;;;;;;;8.93;3.78;;;;;;;6.47;82.52;100566.47;5027217;28;20026;-77
2022/02/03 12:46:04;;;;;;;7.55;4.03;;;;;;;6.39;82.34;100554.94;5027137;28;20109;-75
2022/02/03 12:48:32;;;;;;;9.40;4.60;;;;;;;6.36;82.21;100559.88;5003820;28;20025;-78
2022/02/03 12:50:59;;;;;;;7.60;4.78;;;;;;;6.26;82.18;100561.06;5008064;28;20026;-78
2022/02/03 12:53:36;;;;;;;12.30;6.43;;;;;;;6.31;83.06;100574.13;5031682;28;20026;-77
2022/02/03 12:56:06;;;;;;;10.07;5.22;;;;;;;6.23;83.98;100566.03;5031999;28;20029;-74
2022/02/03 12:58:38;;;;;;;7.13;4.38;;;;;;;6.13;82.68;100587.69;5029609;28;20079;-75
2022/02/03 13:01:11;;;;;;;6.93;5.00;;;;;;;5.67;83.98;100518.41;5051875;28;20467;-75
2022/02/03 13:03:40;;;;;;;9.45;7.75;;;;;;;6.20;86.46;100593.16;5024939;28;20026;-76
2022/02/03 13:06:12;;;;;;;11.65;8.55;;;;;;;6.19;87.42;100597.38;5019164;28;20073;-82
2022/02/03 13:08:42;;;;;;;10.48;6.90;;;;;;;5.99;87.13;100560.38;5037357;28;20025;-78
2022/02/03 13:11:19;;;;;;;11.02;6.80;;;;;;;6.20;85.37;100596.59;5033400;28;20025;-82
2022/02/03 13:13:57;;;;;;;11.27;7.28;;;;;;;6.21;86.11;100600.06;5030764;28;20119;-82
2022/02/03 13:16:23;;;;;;;14.25;9.43;;;;;;;6.21;87.09;100610.31;5050568;28;20021;-78
2022/02/03 13:19:14;;;;;;;41.72;25.67;;;;;;;6.20;86.97;100617.09;5020961;28;20029;-76
2022/02/03 13:26:51;;;;;;;12.75;9.95;;;;;;;6.15;88.12;100613.41;5010139;28;20033;-76
2022/02/03 13:29:26;;;;;;;11.65;8.02;;;;;;;6.16;87.55;100617.75;5024044;28;20029;-79
2022/02/03 13:32:02;;;;;;;9.80;8.15;;;;;;;6.14;87.58;100609.06;5024311;28;20083;-76
2022/02/03 13:34:53;;;;;;;8.27;6.30;;;;;;;6.29;87.72;100614.19;4968167;28;20037;-79
2022/02/03 13:40:01;;;;;;;9.75;7.22;;;;;;;6.25;86.33;100623.38;5010544;28;20053;-80
2022/02/03 13:42:29;;;;;;;9.75;6.43;;;;;;;6.18;84.68;100599.88;5010517;28;20017;-81
2022/02/03 13:45:06;;;;;;;9.30;6.27;;;;;;;6.05;85.71;100581.22;5009137;28;20749;-77
2022/02/03 13:47:37;;;;;;;7.68;6.25;;;;;;;6.36;84.89;100625.69;5010112;28;20096;-77
2022/02/03 13:50:25;;;;;;;11.70;9.32;;;;;;;6.48;85.83;100623.81;4989821;28;20072;-76
2022/02/03 14:20:44;;;;;;;9.43;6.65;;;;;;;5.65;87.22;100631.00;4929376;29;20035;-83
2022/02/03 14:28:26;;;;;;;13.95;8.13;;;;;;;5.48;87.23;100655.63;4930346;29;20034;-77
2022/02/03 14:30:55;;;;;;;13.35;8.43;;;;;;;5.39;88.08;100654.19;4929728;29;20134;-78
2022/02/03 14:33:28;;;;;;;30.30;15.43;;;;;;;5.48;89.36;100667.53;4913630;29;20028;-79
2022/02/03 14:35:59;;;;;;;13.73;8.32;;;;;;;5.52;90.49;100666.94;4929846;29;20043;-77
2022/02/03 14:38:30;;;;;;;21.17;14.38;;;;;;;5.41;90.58;100650.00;4913921;29;20032;-77
2022/02/03 14:43:30;;;;;;;34.15;18.98;;;;;;;5.55;90.17;100674.78;4929731;29;20103;-77
2022/02/03 14:45:58;;;;;;;33.10;19.17;;;;;;;5.30;90.26;100649.38;4929359;29;20023;-77
2022/02/03 14:48:23;;;;;;;32.97;20.35;;;;;;;5.35;91.01;100674.47;4913199;29;20063;-77
2022/02/03 14:50:50;;;;;;;24.48;15.18;;;;;;;5.48;91.01;100688.91;4913817;29;20074;-77
2022/02/03 14:53:19;;;;;;;24.95;12.73;;;;;;;5.31;90.97;100679.31;4929608;29;20034;-79
2022/02/03 14:58:30;;;;;;;17.80;11.13;;;;;;;5.31;92.12;100694.69;5002852;28;20033;-78
2022/02/03 15:00:57;;;;;;;28.98;17.02;;;;;;;5.22;92.50;100697.56;5009633;28;20107;-77
2022/02/03 15:03:26;;;;;;;30.10;16.65;;;;;;;5.21;93.32;100706.03;4991736;28;20033;-78
2022/02/03 15:05:53;;;;;;;19.10;11.82;;;;;;;5.19;92.72;100708.47;5009321;28;20061;-80
2022/02/03 15:08:23;;;;;;;21.70;14.63;;;;;;;5.15;92.41;100708.19;4991767;28;20018;-82
2022/02/03 15:13:44;;;;;;;12.95;8.20;;;;;;;4.97;93.38;100725.81;5009647;28;20034;-78
2022/02/03 15:16:11;;;;;;;20.15;13.57;;;;;;;4.82;94.11;100712.94;4992850;28;20022;-79
2022/02/03 15:18:38;;;;;;;24.70;15.60;;;;;;;4.59;95.16;100689.34;4995050;28;20068;-79
2022/02/03 15:21:05;;;;;;;22.60;15.68;;;;;;;4.81;95.41;100735.09;5011627;28;20064;-80
2022/02/03 15:23:30;;;;;;;25.35;18.20;;;;;;;4.79;95.97;100730.66;5003823;28;20052;-78
2022/02/03 15:25:56;;;;;;;15.70;11.73;;;;;;;4.61;96.04;100702.22;5012541;28;20112;-81
2022/02/03 15:28:21;;;;;;;14.35;11.00;;;;;;;4.74;97.55;100742.28;5013077;28;20026;-76
2022/02/03 15:30:47;;;;;;;21.55;11.10;;;;;;;4.72;98.33;100739.59;4995392;28;20366;-79
2022/02/03 15:33:14;;;;;;;32.47;20.73;;;;;;;4.49;99.19;100715.97;5012488;28;20131;-78
2022/02/03 15:35:51;;;;;;;39.67;25.20;;;;;;;4.50;99.96;100722.00;5012875;28;20117;-76
2022/02/03 15:38:19;;;;;;;34.22;21.60;;;;;;;4.51;100.00;100746.75;5012414;28;20022;-79
2022/02/03 15:40:47;;;;;;;25.70;16.98;;;;;;;4.42;100.00;100744.47;5012538;28;20037;-79
2022/02/03 15:43:26;;;;;;;23.77;13.70;;;;;;;4.36;100.00;100744.06;5012429;28;20018;-79
2022/02/03 15:45:55;;;;;;;37.28;26.02;;;;;;;4.29;100.00;100742.78;4952550;28;20035;-76
2022/02/03 16:17:40;;;;;;;43.60;26.60;;;;;;;3.79;99.85;100788.75;5010328;28;20081;-76
2022/02/03 16:20:12;;;;;;;35.05;20.80;;;;;;;3.67;100.00;100786.25;4995656;28;20388;-76
2022/02/03 16:54:45;;;;;;;17.27;10.30;;;;;;;3.47;98.71;100808.72;5020552;28;20586;-74
2022/02/03 16:57:17;;;;;;;18.25;12.25;;;;;;;3.44;98.20;100799.94;5031426;28;20283;-77
2022/02/03 16:59:53;;;;;;;17.77;9.93;;;;;;;3.39;98.28;100826.03;5021675;28;20399;-80
2022/02/03 17:02:20;;;;;;;12.60;8.68;;;;;;;3.24;99.11;100823.28;5012061;28;20460;-88
2022/02/03 17:04:45;;;;;;;23.65;13.52;;;;;;;2.91;100.00;100821.72;4970350;28;20051;-75
2022/02/03 17:07:11;;;;;;;17.70;11.25;;;;;;;2.69;100.00;100834.53;4970388;28;20042;-82
2022/02/03 17:09:38;;;;;;;17.23;11.03;;;;;;;2.47;100.00;100838.03;4971952;28;20481;-79
2022/02/03 17:12:23;;;;;;;28.85;15.32;;;;;;;2.53;100.00;100845.25;4968896;28;20417;-80
2022/02/03 17:14:49;;;;;;;25.88;16.00;;;;;;;2.50;100.00;100853.53;4969754;28;20043;-88
2022/02/03 17:17:20;;;;;;;28.33;16.17;;;;;;;2.48;100.00;100834.72;4968671;28;20038;-82
2022/02/03 17:19:47;;;;;;;23.37;16.60;;;;;;;2.58;100.00;100842.28;4969566;28;20035;-86
2022/02/03 17:22:14;;;;;;;24.50;16.27;;;;;;;2.55;100.00;100836.06;4969557;28;20046;-80
2022/02/03 17:24:46;;;;;;;21.27;15.53;;;;;;;2.48;100.00;100829.63;4949131;28;20513;-83
2022/02/03 17:27:25;;;;;;;23.33;15.55;;;;;;;2.32;100.00;100807.19;4952953;28;20027;-84
2022/02/03 18:03:03;;;;;;;43.42;26.67;;;;;;;2.48;100.00;100834.72;4910421;29;20502;-90
2022/02/03 18:10:33;;;;;;;26.75;17.23;;;;;;;2.61;100.00;100869.66;4920815;28;20043;-87
2022/02/03 18:35:11;;;;;;;22.48;13.52;;;;;;;2.57;100.00;100928.84;4969179;28;20057;-76
2022/02/03 20:08:43;;;;;;;11.00;7.68;;;;;;;2.68;100.00;100980.63;4951495;28;20134;-78
2022/02/03 20:11:10;;;;;;;15.70;9.57;;;;;;;2.74;100.00;100989.63;4952276;28;20035;-86
2022/02/03 20:13:36;;;;;;;18.52;11.00;;;;;;;2.79;100.00;100994.19;4951408;28;20035;-75
2022/02/03 20:16:01;;;;;;;13.48;9.25;;;;;;;2.74;100.00;100975.97;4951413;28;20031;-77
2022/02/03 20:18:27;;;;;;;12.38;9.23;;;;;;;2.55;100.00;100927.81;4951293;28;20531;-79
2022/02/03 20:20:53;;;;;;;11.88;7.32;;;;;;;2.85;100.00;100971.72;4951509;28;20462;-79
2022/02/03 20:23:21;;;;;;;12.77;6.78;;;;;;;2.62;100.00;100930.06;4935003;28;20425;-74
2022/02/03 20:25:56;;;;;;;12.00;7.00;;;;;;;2.82;100.00;100984.25;4966921;28;20118;-75
2022/02/03 20:28:21;;;;;;;12.75;8.07;;;;;;;2.77;100.00;100983.88;4950776;28;20553;-78
2022/02/03 20:30:47;;;;;;;18.65;10.95;;;;;;;2.56;100.00;100944.88;4950737;28;20031;-70
2022/02/03 20:33:15;;;;;;;25.60;13.68;;;;;;;2.72;100.00;100982.66;4951137;28;20106;-73
2022/02/03 20:35:40;;;;;;;20.35;13.02;;;;;;;2.74;100.00;100982.00;4951339;28;20139;-76
2022/02/03 20:38:07;;;;;;;15.85;9.75;;;;;;;2.71;100.00;100969.00;4934663;28;20118;-74
2022/02/03 20:40:32;;;;;;;19.95;9.98;;;;;;;2.83;100.00;100978.34;4951032;28;20086;-80
2022/02/03 20:42:58;;;;;;;10.75;6.95;;;;;;;2.86;100.00;100993.91;4951214;28;20027;-73
2022/02/03 20:45:23;;;;;;;13.90;8.15;;;;;;;2.90;100.00;100998.44;4992093;28;20041;-79
2022/02/03 20:47:50;;;;;;;14.10;9.70;;;;;;;2.77;100.00;101001.72;5011096;28;20022;-76
2022/02/03 20:50:20;;;;;;;13.05;8.50;;;;;;;2.79;100.00;101000.19;5012156;28;20030;-82
2022/02/03 20:52:45;;;;;;;;;;;;;;;2.77;100.00;101014.47;5023455;28;20029;-78
2022/02/03 20:55:11;;;;;;;11.82;7.88;;;;;;;2.87;100.00;101008.44;5020155;28;19917;-71
2022/02/03 20:57:37;;;;;;;13.18;8.40;;;;;;;2.71;100.00;100953.69;5018837;28;20040;-75
2022/02/03 21:05:31;;;;;;;15.93;10.13;;;;;;;2.78;100.00;101013.72;4928012;29;20063;-76
2022/02/03 21:07:58;;;;;;;19.23;11.43;;;;;;;2.31;100.00;101003.28;4926952;29;20059;-75
2022/02/03 21:10:29;;;;;;;16.88;11.55;;;;;;;2.14;100.00;101001.94;4927598;29;20131;-78
2022/02/03 21:12:57;;;;;;;22.35;13.13;;;;;;;2.03;100.00;101014.69;4928246;29;20038;-75
2022/02/03 21:15:31;;;;;;;24.70;15.17;;;;;;;2.13;100.00;101008.69;4924895;29;20023;-80
2022/02/03 21:18:02;;;;;;;14.15;9.45;;;;;;;2.16;100.00;101002.94;4929375;29;20286;-73
2022/02/03 21:20:28;;;;;;;14.88;9.93;;;;;;;2.21;100.00;101012.72;4928924;29;20039;-91
2022/02/03 21:22:53;;;;;;;17.27;11.03;;;;;;;2.08;100.00;101000.69;4930300;29;20130;-78
2022/02/03 21:25:27;;;;;;;14.00;10.27;;;;;;;2.08;100.00;101013.41;4929496;29;20120;-80
2022/02/03 21:27:55;;;;;;;16.23;10.37;;;;;;;1.95;100.00;100992.81;4928524;29;20140;-77
2022/02/03 21:30:22;;;;;;;13.77;9.57;;;;;;;1.78;100.00;100964.38;4929522;29;20032;-76
2022/02/03 21:32:49;;;;;;;12.00;8.70;;;;;;;2.10;100.00;101010.97;4929568;29;20510;-77
2022/02/03 21:35:16;;;;;;;12.50;8.33;;;;;;;1.99;100.00;100993.94;4924039;29;20159;-87
2022/02/03 21:37:42;;;;;;;13.80;9.30;;;;;;;2.17;100.00;101014.88;4936515;29;20063;-80
2022/02/03 21:40:09;;;;;;;14.95;8.77;;;;;;;2.21;100.00;101028.00;4978466;28;20042;-84
2022/02/03 21:42:35;;;;;;;14.63;9.35;;;;;;;1.93;100.00;100994.34;5011265;28;20112;-85
2022/02/03 21:45:01;;;;;;;18.83;9.52;;;;;;;1.66;100.00;100962.47;5010415;28;20046;-88
2022/02/03 21:47:28;;;;;;;13.93;9.33;;;;;;;2.02;100.00;101040.03;4989954;28;20117;-87
2022/02/03 21:49:53;;;;;;;14.83;9.13;;;;;;;2.05;100.00;101032.66;4994069;28;20153;-78
2022/02/03 21:52:21;;;;;;;14.13;9.43;;;;;;;2.06;100.00;101037.84;5011191;28;20117;-81
2022/02/03 21:54:48;;;;;;;15.83;9.33;;;;;;;1.98;100.00;101023.63;5011037;28;20026;-77
2022/02/03 21:57:14;;;;;;;13.65;8.20;;;;;;;1.76;100.00;101019.34;5010586;28;20076;-82
2022/02/03 21:59:40;;;;;;;12.87;8.33;;;;;;;1.44;100.00;100986.19;5011129;28;20034;-79
2022/02/03 22:02:07;;;;;;;15.33;8.33;;;;;;;1.23;100.00;100982.75;4988837;28;20038;-84
2022/02/03 22:04:32;;;;;;;11.57;7.70;;;;;;;1.54;100.00;101031.09;4989053;28;20042;-81
2022/02/03 22:06:58;;;;;;;10.83;7.20;;;;;;;1.53;100.00;101037.81;4993996;28;20516;-81
2022/02/03 22:09:24;;;;;;;10.17;7.00;;;;;;;1.53;100.00;101035.28;4992251;28;20093;-85
2022/02/03 22:11:49;;;;;;;11.50;7.30;;;;;;;1.11;100.00;100981.00;4972969;28;20030;-83
2022/02/03 22:14:15;;;;;;;12.33;7.47;;;;;;;1.25;100.00;101019.41;4989017;28;20046;-72
2022/02/03 22:16:41;;;;;;;14.13;8.90;;;;;;;1.24;100.00;101032.88;4986485;28;20041;-77
2022/02/03 22:19:06;;;;;;;16.03;9.53;;;;;;;0.99;100.00;100984.19;4988867;28;20038;-74
2022/02/03 22:24:29;;;;;;;16.17;9.18;;;;;;;1.13;100.00;101034.50;4929394;29;20551;-74
2022/02/03 22:45:47;;;;;;;12.57;8.67;;;;;;;0.98;100.00;101031.56;4897111;29;20043;-79
2022/02/03 22:48:25;;;;;;;14.53;9.33;;;;;;;0.90;100.00;101015.69;4896564;29;20439;-82
2022/02/03 22:50:59;;;;;;;13.23;8.90;;;;;;;1.06;100.00;101012.78;4896784;29;20106;-84
2022/02/03 22:53:32;;;;;;;15.13;9.47;;;;;;;0.98;100.00;100982.38;4910162;29;20092;-81
2022/02/03 22:56:02;;;;;;;14.93;8.97;;;;;;;1.01;100.00;101011.50;4884285;29;20495;-84
2022/02/03 22:59:03;;;;;;;15.10;9.70;;;;;;;1.02;100.00;101028.50;4898173;29;20032;-84
2022/02/03 23:01:23;;;;;;;13.93;9.57;;;;;;;0.98;100.00;101030.69;4970859;28;20145;-85
2022/02/03 23:03:49;;;;;;;13.70;9.00;;;;;;;0.55;100.00;100994.88;5013082;28;20030;-83
2022/02/03 23:06:15;;;;;;;16.00;9.33;;;;;;;0.68;100.00;101035.84;4996613;28;20095;-80
2022/02/03 23:09:08;;;;;;;15.00;8.83;;;;;;;0.56;100.00;101050.03;5013174;28;20021;-79
2022/02/03 23:19:04;;;;;;;17.10;9.87;;;;;;;0.43;100.00;101040.47;5013503;28;20041;-87
2022/02/03 23:23:56;;;;;;;15.43;10.30;;;;;;;0.32;100.00;101032.81;5014410;28;20025;-83